createdAt,value
2018-03-01T00:01:06.664Z,21.25
2018-03-01T00:03:36.677Z,19.52
2018-03-01T00:06:05.590Z,19.65
2018-03-01T00:08:35.585Z,18.12
2018-03-01T00:11:05.290Z,18.25
2018-03-01T00:13:35.390Z,17.60
2018-03-01T00:16:05.068Z,17.98
2018-03-01T00:18:34.845Z,18.60
2018-03-01T00:21:03.772Z,18.87
2018-03-01T00:23:32.629Z,18.80
2018-03-01T00:26:01.570Z,17.17
2018-03-01T00:28:30.698Z,18.37
2018-03-01T00:31:01.024Z,18.37
2018-03-01T00:33:30.029Z,18.50
2018-03-01T00:35:58.949Z,18.92
2018-03-01T00:38:27.789Z,21.05
2018-03-01T00:40:56.671Z,22.15
2018-03-01T00:43:25.832Z,22.70
2018-03-01T00:45:55.889Z,21.77
2018-03-01T00:48:24.787Z,19.40
2018-03-01T00:50:54.306Z,17.80
2018-03-01T00:53:23.225Z,17.80
2018-03-01T00:55:52.142Z,17.17
2018-03-01T00:58:20.969Z,17.75
2018-03-01T01:00:49.891Z,17.20
2018-03-01T01:03:18.816Z,15.90
2018-03-01T01:05:47.751Z,16.92
2018-03-01T01:08:16.981Z,20.15
2018-03-01T01:10:45.874Z,18.50
2018-03-01T01:13:14.844Z,18.48
2018-03-01T01:15:43.752Z,18.12
2018-03-01T01:18:13.628Z,17.65
2018-03-01T01:20:43.249Z,17.33
2018-03-01T01:23:12.138Z,17.30
2018-03-01T01:25:40.977Z,17.62
2018-03-01T01:28:10.056Z,17.23
2018-03-01T01:30:38.852Z,17.52
2018-03-01T01:33:07.703Z,16.35
2018-03-01T01:35:36.607Z,14.38
2018-03-01T01:38:05.470Z,15.95
2018-03-01T01:40:34.361Z,16.92
2018-03-01T01:43:03.164Z,17.65
2018-03-01T01:45:32.038Z,17.12
2018-03-01T01:48:00.914Z,19.65
2018-03-01T01:50:30.072Z,16.83
2018-03-01T01:52:59.004Z,18.62
2018-03-01T01:55:27.992Z,18.25
2018-03-01T01:57:56.801Z,17.58
2018-03-01T02:00:26.447Z,18.35
2018-03-01T02:02:55.324Z,17.50
2018-03-01T02:05:24.220Z,19.67
2018-03-01T02:07:53.041Z,19.02
2018-03-01T02:10:22.054Z,17.77
2018-03-01T02:12:50.982Z,17.95
2018-03-01T02:15:20.125Z,17.55
2018-03-01T02:17:49.337Z,16.70
2018-03-01T02:20:18.452Z,16.30
2018-03-01T02:22:47.367Z,15.50
2018-03-01T02:25:16.324Z,16.25
2018-03-01T02:27:45.932Z,15.38
2018-03-01T02:30:22.001Z,15.95
2018-03-01T02:32:50.934Z,14.75
2018-03-01T02:35:20.791Z,14.63
2018-03-01T02:37:50.423Z,14.82
2018-03-01T02:40:20.487Z,14.30
2018-03-01T02:42:49.373Z,14.23
2018-03-01T02:45:18.250Z,15.90
2018-03-01T02:47:47.132Z,15.10
2018-03-01T02:50:16.527Z,15.02
2018-03-01T02:52:45.345Z,14.40
2018-03-01T02:55:14.594Z,14.82
2018-03-01T02:57:43.410Z,15.02
2018-03-01T03:00:12.429Z,18.62
2018-03-01T03:02:42.542Z,17.23
2018-03-01T03:05:11.383Z,24.12
2018-03-01T03:07:40.266Z,25.08
2018-03-01T03:10:09.830Z,23.33
2018-03-01T03:12:38.785Z,23.62
2018-03-01T03:15:07.790Z,19.83
2018-03-01T03:17:36.832Z,20.77
2018-03-01T03:20:05.675Z,21.23
2018-03-01T03:22:34.537Z,19.30
2018-03-01T03:25:03.953Z,15.65
2018-03-01T03:27:32.882Z,17.37
2018-03-01T03:30:02.079Z,14.98
2018-03-01T03:32:31.224Z,16.62
2018-03-01T03:35:00.918Z,16.80
2018-03-01T03:37:30.537Z,15.75
2018-03-01T03:40:00.180Z,16.55
2018-03-01T03:42:29.016Z,15.98
2018-03-01T03:44:58.640Z,15.77
2018-03-01T03:47:28.672Z,16.23
2018-03-01T03:49:57.482Z,13.75
2018-03-01T03:52:26.350Z,10.95
2018-03-01T03:54:55.578Z,12.37
2018-03-01T03:57:24.568Z,10.57
2018-03-01T03:59:53.448Z,9.63
2018-03-01T04:02:22.369Z,10.98
2018-03-01T04:04:51.630Z,11.65
2018-03-01T04:07:20.560Z,8.90
2018-03-01T04:09:49.733Z,9.52
2018-03-01T04:12:18.986Z,9.82
2018-03-01T04:14:48.835Z,8.73
2018-03-01T04:17:17.907Z,9.70
2018-03-01T04:19:47.612Z,12.50
2018-03-01T04:22:16.618Z,14.48
2018-03-01T04:24:45.593Z,13.80
2018-03-01T04:27:14.648Z,23.35
2018-03-01T04:29:43.745Z,9.57
2018-03-01T04:32:12.845Z,13.88
2018-03-01T04:34:41.769Z,20.40
2018-03-01T04:37:10.909Z,16.10
2018-03-01T04:39:39.790Z,19.37
2018-03-01T04:42:08.701Z,25.12
2018-03-01T04:44:37.601Z,20.70
2018-03-01T04:47:06.501Z,16.17
2018-03-01T04:49:35.636Z,13.05
2018-03-01T04:52:05.293Z,12.82
2018-03-01T04:54:38.203Z,10.88
2018-03-01T04:57:07.737Z,27.85
2018-03-01T04:59:37.577Z,28.23
2018-03-01T05:02:06.506Z,30.23
2018-03-01T05:04:35.484Z,26.83
2018-03-01T05:07:04.682Z,32.40
2018-03-01T05:09:33.581Z,27.15
2018-03-01T05:12:02.469Z,22.90
2018-03-01T05:14:31.338Z,21.33
2018-03-01T05:17:00.122Z,24.17
2018-03-01T05:19:29.013Z,25.77
2018-03-01T05:21:58.137Z,25.77
2018-03-01T05:24:27.070Z,24.98
2018-03-01T05:26:56.888Z,24.55
2018-03-01T05:29:25.869Z,25.52
2018-03-01T05:31:54.789Z,28.17
2018-03-01T05:34:23.716Z,26.87
2018-03-01T05:36:52.534Z,20.60
2018-03-01T05:39:21.369Z,16.27
2018-03-01T05:41:50.256Z,15.80
2018-03-01T05:44:19.178Z,13.60
2018-03-01T05:46:48.036Z,15.05
2018-03-01T05:49:17.125Z,13.85
2018-03-01T05:51:46.169Z,14.55
2018-03-01T05:54:15.430Z,13.45
2018-03-01T05:56:44.349Z,13.93
2018-03-01T05:59:13.258Z,14.52
2018-03-01T06:01:42.185Z,13.48
2018-03-01T06:04:11.074Z,14.38
2018-03-01T06:06:40.732Z,13.40
2018-03-01T06:09:10.241Z,14.48
2018-03-01T06:11:39.044Z,13.27
2018-03-01T06:14:07.968Z,13.30
2018-03-01T06:16:36.945Z,12.77
2018-03-01T06:19:06.777Z,12.45
2018-03-01T06:21:35.937Z,13.55
2018-03-01T06:24:05.786Z,15.80
2018-03-01T06:26:34.685Z,17.92
2018-03-01T06:29:04.316Z,20.00
2018-03-01T06:31:33.388Z,19.55
2018-03-01T06:34:02.280Z,22.25
2018-03-01T06:36:31.211Z,22.92
2018-03-01T06:39:00.109Z,23.05
2018-03-01T06:41:29.792Z,25.00
2018-03-01T06:43:58.876Z,22.00
2018-03-01T06:46:27.765Z,23.35
2018-03-01T06:48:56.706Z,35.15
2018-03-01T06:51:25.582Z,19.37
2018-03-01T06:53:54.910Z,19.25
2018-03-01T06:56:23.793Z,34.55
2018-03-01T06:58:52.750Z,13.93
2018-03-01T07:01:22.441Z,33.05
2018-03-01T07:03:51.384Z,16.98
2018-03-01T07:06:20.345Z,15.05
2018-03-01T07:08:50.319Z,17.05
2018-03-01T07:11:19.230Z,14.27
2018-03-01T07:13:48.136Z,15.38
2018-03-01T07:16:17.958Z,14.20
2018-03-01T07:18:46.768Z,14.30
2018-03-01T07:21:15.834Z,14.32
2018-03-01T07:23:45.497Z,12.88
2018-03-01T07:26:14.341Z,16.35
2018-03-01T07:28:43.436Z,16.75
2018-03-01T07:31:12.396Z,13.75
2018-03-01T07:33:41.316Z,14.82
2018-03-01T07:36:10.482Z,14.05
2018-03-01T07:38:39.385Z,14.00
2018-03-01T07:41:08.249Z,12.90
2018-03-01T07:43:37.877Z,13.18
2018-03-01T07:46:07.816Z,11.60
2018-03-01T07:48:36.723Z,11.35
2018-03-01T07:51:05.723Z,13.32
2018-03-01T07:53:34.557Z,18.17
2018-03-01T07:56:03.696Z,14.32
2018-03-01T07:58:32.585Z,12.75
2018-03-01T08:01:01.508Z,13.48
2018-03-01T08:03:30.411Z,12.57
2018-03-01T08:06:00.042Z,13.50
2018-03-01T08:08:28.975Z,12.95
2018-03-01T08:10:57.908Z,16.35
2018-03-01T08:13:27.532Z,14.52
2018-03-01T08:15:56.474Z,13.50
2018-03-01T08:18:25.514Z,14.73
2018-03-01T08:20:54.402Z,14.20
2018-03-01T08:23:23.506Z,15.63
2018-03-01T08:25:52.574Z,18.27
2018-03-01T08:28:22.370Z,17.35
2018-03-01T08:30:51.274Z,16.17
2018-03-01T08:33:20.365Z,18.37
2018-03-01T08:35:49.272Z,18.48
2018-03-01T08:38:19.005Z,16.35
2018-03-01T08:40:47.846Z,16.98
2018-03-01T08:43:16.756Z,17.70
2018-03-01T08:45:45.641Z,17.60
2018-03-01T08:48:14.540Z,19.48
2018-03-01T08:50:44.413Z,22.17
2018-03-01T08:53:14.113Z,25.60
2018-03-01T08:55:43.161Z,28.50
2018-03-01T08:58:12.178Z,24.65
2018-03-01T09:00:41.116Z,25.27
2018-03-01T09:03:09.950Z,29.52
2018-03-01T09:05:39.618Z,25.55
2018-03-01T09:08:08.491Z,25.83
2018-03-01T09:10:37.415Z,24.27
2018-03-01T09:13:07.045Z,24.87
2018-03-01T09:15:36.794Z,26.23
2018-03-01T09:18:06.028Z,35.40
2018-03-01T09:20:34.890Z,43.72
2018-03-01T09:23:04.592Z,36.47
2018-03-01T09:25:33.439Z,30.08
2018-03-01T09:28:03.073Z,25.83
2018-03-01T09:30:32.929Z,30.15
2018-03-01T09:33:04.086Z,30.92
2018-03-01T09:35:34.165Z,24.83
2018-03-01T09:38:03.003Z,26.87
2018-03-01T09:40:31.903Z,25.33
2018-03-01T09:43:00.777Z,30.23
2018-03-01T09:45:30.450Z,26.33
2018-03-01T09:48:00.227Z,29.40
2018-03-01T09:50:29.065Z,30.37
2018-03-01T09:52:58.142Z,30.67
2018-03-01T09:55:27.006Z,33.75
2018-03-01T09:57:55.864Z,28.52
2018-03-01T10:00:24.709Z,26.12
2018-03-01T10:02:53.757Z,30.85
2018-03-01T10:05:22.662Z,30.95
2018-03-01T10:07:51.587Z,30.95
2018-03-01T10:10:20.430Z,27.95
2018-03-01T10:12:50.110Z,30.70
2018-03-01T10:15:19.757Z,48.30
2018-03-01T10:17:48.585Z,38.67
2018-03-01T10:20:17.434Z,35.97
2018-03-01T10:22:46.345Z,39.13
2018-03-01T10:25:15.228Z,35.53
2018-03-01T10:27:44.195Z,38.40
2018-03-01T10:30:13.044Z,40.25
2018-03-01T10:32:41.993Z,40.65
2018-03-01T10:35:11.815Z,52.47
2018-03-01T10:37:40.848Z,44.03
2018-03-01T10:40:09.829Z,42.17
2018-03-01T10:42:38.694Z,44.80
2018-03-01T10:45:07.577Z,41.00
2018-03-01T10:47:37.221Z,45.75
2018-03-01T10:50:07.096Z,42.45
2018-03-01T10:52:36.679Z,38.15
2018-03-01T10:55:05.776Z,37.20
2018-03-01T10:57:35.702Z,38.72
2018-03-01T11:00:05.437Z,33.25
2018-03-01T11:02:34.401Z,34.25
2018-03-01T11:05:04.034Z,33.97
2018-03-01T11:07:33.644Z,32.97
2018-03-01T11:10:02.657Z,35.17
2018-03-01T11:12:31.632Z,33.53
2018-03-01T11:15:00.700Z,33.95
2018-03-01T11:17:30.244Z,32.92
2018-03-01T11:19:59.208Z,31.25
2018-03-01T11:22:28.406Z,32.95
2018-03-01T11:24:58.182Z,32.63
2018-03-01T11:27:26.969Z,32.03
2018-03-01T11:29:56.808Z,31.83
2018-03-01T11:32:26.530Z,34.28
2018-03-01T11:34:56.168Z,33.78
2018-03-01T11:37:25.880Z,35.40
2018-03-01T11:39:54.663Z,35.92
2018-03-01T11:42:23.521Z,34.88
2018-03-01T11:44:52.679Z,36.38
2018-03-01T11:47:21.569Z,33.95
2018-03-01T11:49:50.608Z,32.38
2018-03-01T11:52:19.538Z,33.45
2018-03-01T11:54:49.298Z,29.97
2018-03-01T11:57:18.257Z,33.33
2018-03-01T11:59:47.305Z,29.90
2018-03-01T12:02:16.189Z,31.53
2018-03-01T12:04:45.059Z,29.60
2018-03-01T12:07:13.986Z,28.67
2018-03-01T12:09:42.857Z,28.40
2018-03-01T12:12:12.517Z,31.97
2018-03-01T12:14:41.547Z,30.17
2018-03-01T12:17:10.461Z,35.60
2018-03-01T12:19:39.343Z,32.33
2018-03-01T12:22:09.005Z,28.07
2018-03-01T12:24:38.144Z,34.63
2018-03-01T12:27:07.053Z,27.47
2018-03-01T12:29:35.898Z,27.93
2018-03-01T12:32:04.777Z,27.83
2018-03-01T12:34:34.371Z,28.20
2018-03-01T12:37:03.232Z,26.87
2018-03-01T12:39:32.303Z,26.17
2018-03-01T12:42:01.235Z,27.83
2018-03-01T12:44:30.089Z,28.10
2018-03-01T12:46:58.941Z,22.83
2018-03-01T12:49:28.238Z,23.40
2018-03-01T12:51:57.293Z,27.77
2018-03-01T12:54:26.371Z,25.10
2018-03-01T12:56:56.213Z,25.83
2018-03-01T12:59:25.157Z,41.00
2018-03-01T13:01:55.005Z,24.30
2018-03-01T13:04:38.749Z,23.57
2018-03-01T13:07:07.727Z,23.60
2018-03-01T13:09:36.803Z,26.23
2018-03-01T13:12:06.521Z,23.80
2018-03-01T13:14:35.875Z,23.40
2018-03-01T13:17:04.861Z,22.70
2018-03-01T13:19:33.819Z,25.87
2018-03-01T13:22:02.805Z,24.00
2018-03-01T13:24:31.703Z,19.63
2018-03-01T13:27:00.667Z,22.97
2018-03-01T13:29:30.484Z,19.30
2018-03-01T13:32:01.299Z,19.83
2018-03-01T13:34:43.924Z,20.87
2018-03-01T13:37:13.638Z,19.30
2018-03-01T13:39:43.305Z,23.07
2018-03-01T13:42:16.078Z,29.40
2018-03-01T13:44:45.057Z,19.50
2018-03-01T13:47:14.062Z,19.03
2018-03-01T13:49:43.042Z,22.20
2018-03-01T13:52:12.073Z,23.30
2018-03-01T13:54:41.427Z,26.03
2018-03-01T13:57:10.311Z,23.10
2018-03-01T13:59:39.287Z,27.47
2018-03-01T14:02:09.425Z,27.10
2018-03-01T14:04:38.413Z,50.60
2018-03-01T14:07:23.301Z,33.93
2018-03-01T14:09:52.566Z,25.03
2018-03-01T14:12:38.332Z,24.37
2018-03-01T14:15:16.273Z,32.27
2018-03-01T14:17:46.637Z,27.03
2018-03-01T14:20:19.135Z,26.10
2018-03-01T14:23:05.637Z,35.33
2018-03-01T14:25:52.111Z,31.77
2018-03-01T14:28:28.908Z,27.10
2018-03-01T14:30:57.852Z,36.65
2018-03-01T14:33:26.656Z,25.27
2018-03-01T14:35:55.861Z,25.60
2018-03-01T14:38:25.038Z,28.70
2018-03-01T14:40:53.968Z,29.35
2018-03-01T14:43:22.836Z,36.05
2018-03-01T14:45:51.759Z,53.40
2018-03-01T14:48:20.610Z,29.05
2018-03-01T14:50:49.442Z,29.63
2018-03-01T14:53:18.327Z,34.22
2018-03-01T14:55:47.215Z,36.85
2018-03-01T14:58:16.265Z,36.08
2018-03-01T15:00:45.158Z,35.65
2018-03-01T15:03:14.832Z,36.58
2018-03-01T15:05:43.749Z,36.67
2018-03-01T15:08:12.719Z,38.60
2018-03-01T15:10:41.724Z,40.45
2018-03-01T15:13:10.700Z,40.15
2018-03-01T15:15:40.290Z,38.05
2018-03-01T15:18:09.208Z,38.97
2018-03-01T15:20:38.152Z,40.53
2018-03-01T15:23:07.351Z,43.50
2018-03-01T15:25:37.284Z,43.20
2018-03-01T15:28:06.080Z,44.60
2018-03-01T15:30:35.797Z,43.35
2018-03-01T15:33:05.584Z,51.13
2018-03-01T15:35:34.612Z,43.78
2018-03-01T15:38:03.517Z,51.72
2018-03-01T15:40:32.491Z,50.28
2018-03-01T15:43:02.264Z,68.50
2018-03-01T15:45:31.120Z,64.80
2018-03-01T15:48:00.051Z,55.00
2018-03-01T15:50:28.967Z,65.68
2018-03-01T15:52:58.005Z,80.75
2018-03-01T15:55:26.892Z,76.12
2018-03-01T15:57:56.706Z,56.00
2018-03-01T16:00:25.562Z,54.90
2018-03-01T16:02:54.382Z,48.47
2018-03-01T16:05:23.468Z,53.72
2018-03-01T16:07:52.545Z,53.10
2018-03-01T16:10:22.395Z,66.03
2018-03-01T16:12:51.383Z,68.10
2018-03-01T16:15:20.323Z,75.95
2018-03-01T16:17:50.084Z,71.15
2018-03-01T16:20:19.887Z,62.10
2018-03-01T16:22:49.534Z,72.35
2018-03-01T16:25:18.581Z,63.80
2018-03-01T16:27:48.229Z,60.55
2018-03-01T16:30:17.065Z,49.75
2018-03-01T16:32:46.268Z,50.60
2018-03-01T16:35:15.942Z,59.03
2018-03-01T16:37:45.624Z,59.10
2018-03-01T16:40:14.830Z,59.00
2018-03-01T16:42:44.433Z,61.87
2018-03-01T16:45:13.282Z,52.08
2018-03-01T16:47:42.886Z,41.70
2018-03-01T16:50:12.736Z,47.22
2018-03-01T16:52:41.607Z,48.25
2018-03-01T16:55:10.613Z,50.97
2018-03-01T16:57:39.498Z,55.17
2018-03-01T17:00:08.326Z,60.97
2018-03-01T17:02:37.224Z,55.08
2018-03-01T17:05:06.262Z,55.47
2018-03-01T17:07:35.120Z,63.78
2018-03-01T17:10:04.108Z,71.55
2018-03-01T17:12:33.761Z,58.13
2018-03-01T17:15:02.950Z,75.03
2018-03-01T17:17:32.059Z,69.47
2018-03-01T17:20:00.986Z,68.57
2018-03-01T17:22:30.011Z,70.95
2018-03-01T17:24:59.049Z,56.90
2018-03-01T17:27:28.988Z,59.83
2018-03-01T17:29:58.308Z,54.67
2018-03-01T17:32:27.424Z,54.92
2018-03-01T17:34:56.541Z,53.13
2018-03-01T17:37:25.428Z,52.30
2018-03-01T17:39:55.220Z,51.72
2018-03-01T17:42:25.161Z,51.17
2018-03-01T17:44:54.009Z,55.33
2018-03-01T17:47:22.882Z,55.20
2018-03-01T17:49:51.968Z,56.58
2018-03-01T17:52:20.768Z,64.60
2018-03-01T17:54:49.704Z,70.90
2018-03-01T17:57:18.660Z,61.20
2018-03-01T17:59:47.563Z,63.03
2018-03-01T18:02:17.108Z,59.13
2018-03-01T18:04:45.897Z,67.55
2018-03-01T18:07:14.905Z,74.60
2018-03-01T18:09:43.753Z,76.93
2018-03-01T18:12:12.894Z,75.00
2018-03-01T18:14:42.284Z,74.20
2018-03-01T18:17:11.183Z,72.87
2018-03-01T18:19:40.102Z,63.55
2018-03-01T18:22:09.249Z,58.78
2018-03-01T18:24:38.454Z,53.55
2018-03-01T18:27:08.702Z,54.35
2018-03-01T18:29:37.951Z,52.05
2018-03-01T18:32:09.646Z,48.42
2018-03-01T18:34:39.297Z,47.58
2018-03-01T18:37:08.538Z,42.95
2018-03-01T18:39:37.800Z,42.75
2018-03-01T18:42:07.297Z,41.97
2018-03-01T18:44:36.820Z,45.83
2018-03-01T18:47:05.761Z,45.12
2018-03-01T18:49:35.762Z,44.95
2018-03-01T18:52:04.749Z,47.17
2018-03-01T18:54:33.884Z,62.30
2018-03-01T18:57:03.936Z,51.40
2018-03-01T18:59:33.643Z,44.33
2018-03-01T19:02:02.694Z,44.70
2018-03-01T19:04:31.893Z,54.75
2018-03-01T19:07:05.261Z,50.38
2018-03-01T19:09:35.295Z,50.47
2018-03-01T19:12:07.084Z,44.25
2018-03-01T19:14:36.673Z,30.33
2018-03-01T19:17:06.331Z,42.35
2018-03-01T19:19:38.416Z,40.42
2018-03-01T19:22:07.439Z,52.70
2018-03-01T19:24:38.410Z,44.03
2018-03-01T19:27:07.639Z,73.60
2018-03-01T19:29:36.691Z,104.43
2018-03-01T19:32:05.637Z,88.75
2018-03-01T19:34:34.678Z,75.93
2018-03-01T19:37:04.032Z,48.90
2018-03-01T19:39:33.542Z,58.03
2018-03-01T19:42:03.471Z,98.57
2018-03-01T19:44:33.851Z,90.60
2018-03-01T19:47:03.367Z,59.42
2018-03-01T19:49:32.697Z,61.92
2018-03-01T19:52:02.786Z,40.72
2018-03-01T19:54:32.125Z,45.22
2018-03-01T19:57:01.486Z,54.28
2018-03-01T19:59:31.146Z,91.10
2018-03-01T20:02:00.620Z,93.30
2018-03-01T20:04:30.720Z,52.53
2018-03-01T20:07:00.025Z,35.83
2018-03-01T20:09:29.363Z,46.58
2018-03-01T20:11:59.527Z,37.45
2018-03-01T20:14:28.819Z,29.65
2018-03-01T20:16:58.293Z,28.20
2018-03-01T20:19:27.519Z,30.73
2018-03-01T20:21:56.964Z,31.60
2018-03-01T20:24:26.256Z,30.30
2018-03-01T20:26:55.630Z,30.58
2018-03-01T20:29:24.991Z,30.15
2018-03-01T20:31:54.830Z,38.97
2018-03-01T20:34:24.157Z,29.67
2018-03-01T20:36:53.367Z,30.00
2018-03-01T20:39:23.416Z,33.17
2018-03-01T20:41:53.383Z,30.42
2018-03-01T20:44:23.170Z,30.83
2018-03-01T20:46:51.994Z,30.95
2018-03-01T20:49:20.882Z,63.10
2018-03-01T20:51:49.765Z,42.47
2018-03-01T20:54:19.895Z,33.63
2018-03-01T20:56:49.239Z,31.67
2018-03-01T20:59:18.161Z,31.85
2018-03-01T21:01:47.078Z,47.55
2018-03-01T21:04:17.048Z,47.83
2018-03-01T21:06:46.027Z,39.90
2018-03-01T21:09:14.916Z,30.85
2018-03-01T21:11:44.077Z,31.08
2018-03-01T21:14:13.022Z,34.72
2018-03-01T21:16:41.994Z,30.95
2018-03-01T21:19:10.949Z,32.53
2018-03-01T21:21:39.921Z,32.63
2018-03-01T21:24:09.583Z,32.53
2018-03-01T21:26:38.835Z,33.00
2018-03-01T21:29:07.896Z,34.92
2018-03-01T21:31:36.887Z,33.92
2018-03-01T21:34:05.868Z,32.20
2018-03-01T21:36:34.866Z,32.47
2018-03-01T21:39:03.880Z,33.72
2018-03-01T21:41:32.770Z,33.08
2018-03-01T21:44:01.857Z,32.08
2018-03-01T21:46:30.733Z,33.38
2018-03-01T21:48:59.635Z,31.15
2018-03-01T21:51:28.596Z,30.33
2018-03-01T21:53:57.571Z,29.85
2018-03-01T21:56:27.237Z,29.70
2018-03-01T21:58:56.167Z,30.70
2018-03-01T22:01:25.054Z,31.90
2018-03-01T22:03:53.904Z,31.77
2018-03-01T22:06:23.745Z,31.77
2018-03-01T22:08:52.653Z,32.60
2018-03-01T22:11:22.366Z,32.95
2018-03-01T22:13:52.006Z,34.05
2018-03-01T22:16:21.025Z,33.30
2018-03-01T22:18:50.277Z,32.75
2018-03-01T22:21:19.897Z,33.80
2018-03-01T22:23:48.873Z,32.33
2018-03-01T22:26:18.598Z,30.70
2018-03-01T22:28:48.204Z,28.35
2018-03-01T22:31:17.241Z,27.52
2018-03-01T22:33:46.393Z,29.02
2018-03-01T22:36:15.285Z,29.50
2018-03-01T22:38:44.255Z,29.63
2018-03-01T22:41:13.917Z,29.37
2018-03-01T22:43:43.064Z,29.12
2018-03-01T22:46:12.753Z,27.87
2018-03-01T22:48:41.926Z,28.75
2018-03-01T22:51:10.815Z,27.92
2018-03-01T22:53:40.534Z,28.55
2018-03-01T22:56:10.462Z,28.17
2018-03-01T22:58:39.484Z,26.77
2018-03-01T23:01:08.370Z,27.70
2018-03-01T23:03:37.309Z,26.55
2018-03-01T23:06:07.230Z,25.92
2018-03-01T23:08:36.588Z,26.65
2018-03-01T23:11:05.463Z,26.20
2018-03-01T23:13:34.343Z,26.73
2018-03-01T23:16:04.075Z,27.17
2018-03-01T23:18:35.354Z,26.70
2018-03-01T23:21:05.290Z,27.48
2018-03-01T23:23:34.316Z,26.65
2018-03-01T23:26:03.433Z,26.23
2018-03-01T23:28:32.318Z,28.12
2018-03-01T23:31:01.965Z,32.38
2018-03-01T23:33:30.854Z,77.35
2018-03-01T23:36:00.577Z,49.97
2018-03-01T23:38:29.460Z,39.42
2018-03-01T23:40:58.596Z,36.90
2018-03-01T23:43:28.436Z,65.03
2018-03-01T23:45:57.433Z,37.88
2018-03-01T23:48:27.282Z,60.12
2018-03-01T23:50:56.240Z,43.28
2018-03-01T23:53:25.872Z,25.65
2018-03-01T23:55:54.818Z,28.12
2018-03-01T23:58:24.510Z,26.12
